Annette, Alaska
Current Conditions -  °F | °C
As of 3:53 PM on Tuesday 27 Jan 2015 (Local Time) from PANT Reporting Station
Light Rain Light Rain  
Wind Chill: 41°   Ceiling: 3200
Heat Index: 41°   Visibility: 10mi
Dew Point: 35°   Wind: 0mph
Humidity: 79%   Direction: NA
Pressure: 30.09"   Gusts: NA
Location:  55.05°N, 131.6°W
Report Text: PANT 280053Z 00000KT 10SM -RA BKN032 BKN039 OVC049 05/02 A3009 RMK AO2 RAB26 SLP191 P0001 T00500017
Loading
Personal Weather Stations






























Interactive Weather Map New forecast layout! Learn more

10-Day Weather Forecast

Advertisements
Track Severe Weather on mobile